Time;durP1;ratioP1;P1;durP2;ratioP2;P2;SDS_P1;SDS_P2;PMS_P1;PMS_P2;Temp;Humidity;BMP_temperature;BMP_pressure;BME280_temperature;BME280_humidity;BME280_pressure;Samples;Min_cycle;Max_cycle;Signal;HPM_P1;HPM_P2
2022/09/23 00:00:16;;;;;;;9.05;7.37;;;;;;;9.33;95.96;96997.03;1784948;79;20900;-86
2022/09/23 00:02:47;;;;;;;9.25;7.03;;;;;;;9.32;95.97;97003.19;1789266;79;20996;-87
2022/09/23 00:05:14;;;;;;;9.95;7.85;;;;;;;9.31;96.02;97008.05;1786235;79;20948;-86
2022/09/23 00:07:40;;;;;;;8.08;6.70;;;;;;;9.31;96.17;97008.87;1777934;79;20960;-87
2022/09/23 00:10:06;;;;;;;10.68;7.83;;;;;;;9.33;96.33;97010.81;1798753;79;20925;-87
2022/09/23 00:12:32;;;;;;;13.35;7.53;;;;;;;9.37;96.41;97002.23;1801431;79;21389;-87
2022/09/23 00:14:58;;;;;;;10.10;7.80;;;;;;;9.40;96.49;96998.01;1795404;79;20988;-86
2022/09/23 00:17:26;;;;;;;9.53;7.12;;;;;;;9.45;96.56;96998.37;1805102;79;20968;-87
2022/09/23 00:19:53;;;;;;;9.70;8.45;;;;;;;9.44;96.31;96994.64;1761943;80;21286;-87
2022/09/23 00:22:19;;;;;;;11.15;9.00;;;;;;;9.42;96.63;96987.47;1793116;79;21457;-87
2022/09/23 00:24:44;;;;;;;10.32;8.10;;;;;;;9.41;96.73;96989.26;1805160;79;20976;-87
2022/09/23 00:27:10;;;;;;;8.85;7.83;;;;;;;9.40;96.77;96992.02;1791768;79;20957;-87
2022/09/23 00:29:36;;;;;;;9.35;7.33;;;;;;;9.41;96.85;96987.96;1808285;79;21308;-87
2022/09/23 00:32:02;;;;;;;10.03;7.75;;;;;;;9.42;96.72;96990.06;1778321;79;21035;-87
2022/09/23 00:34:28;;;;;;;9.50;7.62;;;;;;;9.46;96.74;96985.72;1805878;79;21287;-87
2022/09/23 00:36:55;;;;;;;9.25;7.42;;;;;;;9.47;96.73;96980.86;1777910;79;20956;-87
2022/09/23 00:39:23;;;;;;;9.73;8.30;;;;;;;9.48;96.60;96981.67;1789044;79;20974;-87
2022/09/23 00:41:49;;;;;;;10.90;7.53;;;;;;;9.47;96.56;96975.67;1781549;79;20979;-87
2022/09/23 00:44:48;;;;;;;9.60;8.35;;;;;;;9.46;96.74;96980.53;1783391;79;21047;-87
2022/09/23 00:47:34;;;;;;;11.20;8.43;;;;;;;9.46;96.60;96972.75;1784723;79;21480;-87
2022/09/23 00:50:08;;;;;;;10.25;8.55;;;;;;;9.42;96.18;96971.42;1790368;79;21367;-86
2022/09/23 00:52:35;;;;;;;11.68;8.78;;;;;;;9.40;96.16;96973.86;1790458;79;21474;-87
2022/09/23 00:55:05;;;;;;;11.78;10.03;;;;;;;9.39;96.25;96975.64;1799278;80;21304;-87
2022/09/23 00:57:31;;;;;;;9.93;8.93;;;;;;;9.36;96.19;96966.89;1778489;80;21313;-86
2022/09/23 00:59:57;;;;;;;12.93;9.63;;;;;;;9.33;96.16;96973.70;1800881;80;20919;-87
2022/09/23 01:02:22;;;;;;;13.05;9.38;;;;;;;9.31;96.23;96969.16;1768636;80;20959;-87
2022/09/23 01:04:51;;;;;;;11.43;8.68;;;;;;;9.28;95.97;96970.78;1758658;80;21051;-87
2022/09/23 01:07:18;;;;;;;11.05;8.45;;;;;;;9.23;95.75;96969.13;1785735;80;20956;-86
2022/09/23 01:09:44;;;;;;;11.55;8.58;;;;;;;9.19;95.60;96968.64;1753166;80;21003;-87
2022/09/23 01:12:34;;;;;;;12.25;9.08;;;;;;;9.19;95.69;96971.23;1774839;80;20940;-87
2022/09/23 01:15:14;;;;;;;10.43;8.63;;;;;;;9.18;95.66;96965.72;1755901;80;21322;-87
2022/09/23 01:18:03;;;;;;;11.53;9.75;;;;;;;9.18;95.73;96966.20;1787910;79;20919;-87
2022/09/23 01:21:00;;;;;;;13.85;10.32;;;;;;;9.15;95.61;96960.86;1809261;79;20997;-87
2022/09/23 01:24:01;;;;;;;13.60;10.58;;;;;;;9.12;95.66;96956.48;1780635;80;21453;-86
2022/09/23 01:26:41;;;;;;;13.48;10.23;;;;;;;9.09;95.61;96956.28;1805266;79;21052;-85
2022/09/23 01:29:44;;;;;;;13.83;9.55;;;;;;;9.05;95.40;96959.36;1800717;80;21044;-86
2022/09/23 01:32:21;;;;;;;13.90;10.55;;;;;;;9.01;95.37;96951.91;1781833;80;21040;-86
2022/09/23 01:35:04;;;;;;;15.30;10.38;;;;;;;8.99;95.54;96949.14;1770556;80;21023;-86
2022/09/23 01:37:40;;;;;;;15.28;9.93;;;;;;;8.99;95.64;96949.95;1755928;79;20990;-86
2022/09/23 01:40:19;;;;;;;16.90;11.20;;;;;;;8.97;95.68;96946.72;1787050;79;21003;-86
2022/09/23 01:43:01;;;;;;;14.03;10.50;;;;;;;8.95;95.64;96950.44;1814491;79;21984;-86
2022/09/23 01:45:45;;;;;;;13.22;10.45;;;;;;;8.91;96.03;96943.92;1793976;79;21314;-86
2022/09/23 01:48:25;;;;;;;14.25;11.45;;;;;;;8.88;96.19;96958.02;1785259;80;21000;-86
2022/09/23 01:51:10;;;;;;;15.05;11.00;;;;;;;8.89;96.57;96946.67;1768661;79;21024;-86
2022/09/23 01:54:05;;;;;;;13.58;10.48;;;;;;;8.90;96.58;96946.19;1762481;80;21425;-87
2022/09/23 01:56:48;;;;;;;15.60;11.57;;;;;;;8.93;96.77;96949.76;1779844;80;20965;-86
2022/09/23 01:59:20;;;;;;;15.83;12.37;;;;;;;8.96;97.20;96946.39;1776920;80;20967;-86
2022/09/23 02:01:54;;;;;;;10.55;8.80;;;;;;;9.00;97.27;96947.69;1755181;80;20960;-86
2022/09/23 02:04:31;;;;;;;13.98;11.43;;;;;;;9.07;97.14;96943.16;1735927;81;21367;-86
2022/09/23 02:07:02;;;;;;;14.63;11.75;;;;;;;9.13;97.27;96941.25;1755393;80;20920;-86
2022/09/23 02:09:39;;;;;;;17.90;12.10;;;;;;;9.17;97.24;96951.13;1771209;80;21006;-87
2022/09/23 02:12:11;;;;;;;13.55;11.20;;;;;;;9.17;97.08;96951.63;1782022;80;21002;-86
2022/09/23 02:14:48;;;;;;;15.83;11.78;;;;;;;9.14;96.83;96950.16;1782610;80;20945;-86
2022/09/23 02:17:19;;;;;;;16.77;12.07;;;;;;;9.14;96.74;96949.35;1757724;80;21050;-86
2022/09/23 02:19:50;;;;;;;14.40;11.40;;;;;;;9.14;96.86;96946.27;1771244;79;20989;-86
2022/09/23 02:22:26;;;;;;;15.03;11.70;;;;;;;9.19;96.84;96945.78;1769738;79;20980;-87
2022/09/23 02:24:54;;;;;;;14.75;11.88;;;;;;;9.22;96.71;96946.76;1772538;80;21055;-87
2022/09/23 02:27:33;;;;;;;16.00;12.45;;;;;;;9.22;96.62;96943.68;1764270;79;20960;-87
2022/09/23 02:30:19;;;;;;;16.97;12.07;;;;;;;9.21;96.55;96952.92;1801709;79;20947;-87
2022/09/23 02:33:06;;;;;;;16.25;12.68;;;;;;;9.20;96.82;96946.11;1791126;79;20960;-86
2022/09/23 02:35:40;;;;;;;15.60;11.18;;;;;;;9.24;96.74;96944.81;1781665;80;21326;-87
2022/09/23 02:38:32;;;;;;;15.38;11.40;;;;;;;9.24;96.83;96943.03;1770338;79;20982;-87
2022/09/23 02:41:13;;;;;;;16.82;11.75;;;;;;;9.25;96.75;96945.14;1789196;79;21068;-86
2022/09/23 02:44:06;;;;;;;17.05;11.88;;;;;;;9.23;96.65;96942.70;1794399;80;20947;-87
2022/09/23 02:46:32;;;;;;;15.35;12.82;;;;;;;9.25;96.84;96945.14;1775352;80;21344;-85
2022/09/23 02:49:15;;;;;;;15.50;12.68;;;;;;;9.24;96.93;96950.81;1767643;79;21007;-86
2022/09/23 02:51:40;;;;;;;15.78;12.88;;;;;;;9.25;96.97;96947.73;1782598;79;20948;-86
2022/09/23 02:54:09;;;;;;;17.30;13.45;;;;;;;9.26;97.02;96942.87;1788168;79;20988;-87
2022/09/23 02:56:36;;;;;;;15.03;12.30;;;;;;;9.24;96.80;96942.22;1764981;80;21003;-87
2022/09/23 02:59:02;;;;;;;14.15;12.07;;;;;;;9.24;96.83;96939.63;1776234;80;21403;-87
2022/09/23 03:01:51;;;;;;;15.80;11.88;;;;;;;9.26;96.80;96943.68;1768376;80;21021;-87
2022/09/23 03:04:55;;;;;;;16.62;12.05;;;;;;;9.29;96.69;96935.61;1778153;79;20947;-87
2022/09/23 03:07:45;;;;;;;14.50;12.70;;;;;;;9.26;96.03;96933.31;1764622;80;21313;-87
2022/09/23 03:10:49;;;;;;;17.23;13.05;;;;;;;9.18;95.69;96930.72;1792972;80;20956;-87
2022/09/23 03:13:29;;;;;;;15.88;12.23;;;;;;;9.11;95.77;96932.79;1794320;79;21018;-86
2022/09/23 03:16:00;;;;;;;16.80;12.63;;;;;;;9.02;95.67;96932.79;1779032;80;20985;-86
2022/09/23 03:18:44;;;;;;;19.32;12.70;;;;;;;8.98;95.70;96930.67;1765144;79;21009;-86
2022/09/23 03:21:24;;;;;;;14.55;12.00;;;;;;;8.97;95.85;96928.57;1722661;80;21003;-86
2022/09/23 03:23:49;;;;;;;17.52;13.00;;;;;;;8.95;95.98;96928.41;1788616;80;21410;-87
2022/09/23 03:26:21;;;;;;;14.73;12.98;;;;;;;8.93;96.19;96926.43;1797951;79;20936;-86
2022/09/23 03:28:46;;;;;;;18.98;13.18;;;;;;;8.95;96.49;96925.33;1769710;80;20940;-86
2022/09/23 03:31:12;;;;;;;17.67;12.82;;;;;;;8.96;96.58;96932.14;1811950;79;20940;-86
2022/09/23 03:33:41;;;;;;;18.50;13.15;;;;;;;8.99;96.54;96932.30;1815406;79;20962;-87
2022/09/23 03:38:58;;;;;;;14.23;12.40;;;;;;;9.02;96.47;96923.72;1778986;79;20957;-85
2022/09/23 03:41:29;;;;;;;15.95;13.10;;;;;;;9.01;96.59;96929.87;1804549;79;20983;-86
2022/09/23 03:43:57;;;;;;;;;;;;;;;9.06;96.88;96933.28;1795645;79;20936;-86
2022/09/23 03:46:28;;;;;;;15.65;13.18;;;;;;;9.11;96.96;96936.22;1794868;79;20153;-86
2022/09/23 03:49:03;;;;;;;19.50;11.90;;;;;;;9.09;96.52;96932.14;1783139;79;21020;-86
2022/09/23 03:51:28;;;;;;;17.55;13.25;;;;;;;9.07;96.64;96932.30;1799824;79;20971;-87
2022/09/23 03:53:54;;;;;;;17.02;13.32;;;;;;;9.12;96.91;96931.84;1788115;79;20983;-86
2022/09/23 03:56:20;;;;;;;14.35;12.75;;;;;;;9.14;96.77;96929.42;1782901;79;20964;-88
2022/09/23 03:58:45;;;;;;;16.67;13.68;;;;;;;9.16;96.88;96936.55;1783281;79;20959;-87
2022/09/23 04:01:13;;;;;;;17.90;14.03;;;;;;;9.17;97.16;96937.36;1805817;79;20942;-88
2022/09/23 04:03:40;;;;;;;18.42;13.30;;;;;;;9.18;97.25;96929.42;1793276;79;20933;-85
2022/09/23 04:06:06;;;;;;;15.55;11.88;;;;;;;9.20;97.15;96930.55;1781269;80;21017;-85
2022/09/23 04:08:31;;;;;;;18.80;12.90;;;;;;;9.23;97.13;96924.55;1738443;81;20963;-85
2022/09/23 04:11:01;;;;;;;20.08;13.62;;;;;;;9.27;97.22;96923.29;1779286;80;20990;-85
2022/09/23 04:13:28;;;;;;;16.17;11.85;;;;;;;9.32;97.16;96920.20;1781835;80;20974;-85
2022/09/23 04:15:54;;;;;;;15.78;13.58;;;;;;;9.35;97.08;96925.06;1782304;79;21038;-85
2022/09/23 04:18:20;;;;;;;16.97;13.55;;;;;;;9.36;96.72;96925.39;1770513;80;21077;-85
2022/09/23 04:20:46;;;;;;;17.45;13.68;;;;;;;9.34;96.17;96928.63;1809119;79;20912;-85
2022/09/23 04:23:12;;;;;;;16.90;13.70;;;;;;;9.31;96.07;96926.37;1797933;80;21010;-85
2022/09/23 04:25:48;;;;;;;16.73;12.25;;;;;;;9.26;95.67;96925.53;1778305;80;20906;-85
2022/09/23 04:28:13;;;;;;;14.50;12.05;;;;;;;9.26;95.73;96924.72;1793720;80;20993;-86
2022/09/23 04:30:42;;;;;;;18.27;13.55;;;;;;;9.26;95.61;96929.91;1795961;80;20912;-86
2022/09/23 04:33:09;;;;;;;15.83;13.30;;;;;;;9.25;95.72;96930.88;1770069;80;21314;-85
2022/09/23 04:35:41;;;;;;;15.83;13.05;;;;;;;9.25;95.77;96932.98;1769318;80;20987;-85
2022/09/23 04:38:08;;;;;;;17.90;14.03;;;;;;;9.24;95.72;96927.95;1757584;80;20955;-86
2022/09/23 04:40:36;;;;;;;16.57;13.70;;;;;;;9.23;95.44;96938.01;1793585;79;21327;-86
2022/09/23 04:43:02;;;;;;;16.05;12.45;;;;;;;9.23;95.52;96931.04;1799985;80;20973;-85
2022/09/23 04:45:29;;;;;;;16.48;12.47;;;;;;;9.24;95.54;96931.84;1758753;80;22189;-85
2022/09/23 04:47:57;;;;;;;15.98;13.22;;;;;;;9.27;95.66;96929.77;1800537;80;20930;-85
2022/09/23 04:50:25;;;;;;;17.17;13.62;;;;;;;9.28;95.64;96930.58;1783940;78;20959;-86
2022/09/23 04:52:51;;;;;;;16.65;13.78;;;;;;;9.29;95.85;96932.20;1771281;80;20966;-85
2022/09/23 04:55:17;;;;;;;16.40;14.38;;;;;;;9.29;95.89;96931.72;1770141;80;21099;-85
2022/09/23 04:57:43;;;;;;;16.15;14.45;;;;;;;9.31;95.84;96932.84;1771468;81;21396;-86
2022/09/23 05:00:11;;;;;;;16.45;13.30;;;;;;;9.35;95.79;96929.45;1749861;81;21023;-85
2022/09/23 05:02:44;;;;;;;18.32;13.88;;;;;;;9.39;95.90;96926.36;1760460;81;20907;-85
2022/09/23 05:05:11;;;;;;;16.23;14.25;;;;;;;9.34;94.87;96926.04;1780275;80;20997;-85
2022/09/23 05:07:36;;;;;;;17.55;15.20;;;;;;;9.31;95.06;96924.59;1765710;80;20964;-86
2022/09/23 05:10:03;;;;;;;19.85;15.85;;;;;;;9.31;95.31;96930.26;1789103;80;20957;-85
2022/09/23 05:12:28;;;;;;;21.12;16.20;;;;;;;9.34;95.65;96931.23;1764151;80;20972;-85
2022/09/23 05:14:55;;;;;;;19.35;14.03;;;;;;;9.37;95.42;96937.38;1791004;79;21363;-85
2022/09/23 05:17:20;;;;;;;18.45;14.18;;;;;;;9.41;95.56;96937.87;1791086;80;20941;-85
2022/09/23 05:19:46;;;;;;;20.37;15.30;;;;;;;9.42;95.72;96942.08;1787270;80;21282;-85
2022/09/23 05:22:12;;;;;;;20.77;15.78;;;;;;;9.46;95.77;96940.33;1782216;79;20909;-86
2022/09/23 05:24:38;;;;;;;20.08;15.18;;;;;;;9.48;95.77;96942.27;1770104;80;21004;-86
2022/09/23 05:27:06;;;;;;;16.55;14.65;;;;;;;9.50;95.98;96941.62;1788409;80;21362;-85
2022/09/23 05:29:33;;;;;;;20.90;16.00;;;;;;;9.51;95.88;96939.84;1769462;80;20984;-85
2022/09/23 05:32:00;;;;;;;18.23;14.47;;;;;;;9.56;95.72;96947.94;1759334;80;20921;-86
2022/09/23 05:34:26;;;;;;;18.65;14.65;;;;;;;9.55;95.42;96948.42;1770295;80;21382;-85
2022/09/23 05:36:52;;;;;;;17.45;14.98;;;;;;;9.57;95.46;96942.58;1791652;80;20981;-85
2022/09/23 05:39:18;;;;;;;19.17;14.53;;;;;;;9.49;94.79;96948.27;1786357;80;21306;-86
2022/09/23 05:41:44;;;;;;;16.55;14.25;;;;;;;9.47;95.18;96951.02;1798751;79;20969;-85
2022/09/23 05:44:10;;;;;;;18.45;13.70;;;;;;;9.48;94.96;96950.54;1770140;80;21045;-86
2022/09/23 05:46:36;;;;;;;15.23;13.40;;;;;;;9.52;95.04;96952.64;1789873;80;21009;-85
2022/09/23 05:49:04;;;;;;;18.57;14.55;;;;;;;9.57;95.34;96958.64;1774433;80;21327;-86
2022/09/23 05:51:31;;;;;;;16.23;14.00;;;;;;;9.57;94.92;96955.55;1790025;80;21353;-86
2022/09/23 05:53:58;;;;;;;18.30;14.30;;;;;;;9.60;94.69;96963.53;1797016;79;21028;-86
2022/09/23 05:56:25;;;;;;;17.32;14.05;;;;;;;9.64;94.63;96957.03;1786830;79;20995;-85
2022/09/23 05:58:52;;;;;;;18.52;14.68;;;;;;;9.66;94.30;96956.88;1776630;80;20967;-85
2022/09/23 06:01:20;;;;;;;20.88;16.05;;;;;;;9.65;94.65;96955.25;1755422;80;21414;-85
2022/09/23 06:03:47;;;;;;;16.82;14.80;;;;;;;9.65;94.46;96950.88;1782765;80;21275;-86
2022/09/23 06:06:13;;;;;;;16.25;14.05;;;;;;;9.63;94.14;96956.71;1783036;80;21008;-85
2022/09/23 06:08:41;;;;;;;15.88;13.35;;;;;;;9.62;94.53;96951.20;1760603;80;21341;-85
2022/09/23 06:11:07;;;;;;;16.37;13.65;;;;;;;9.62;94.42;96961.58;1759760;80;20970;-86
2022/09/23 06:13:37;;;;;;;16.20;13.80;;;;;;;9.65;94.04;96960.44;1779870;80;21328;-85
2022/09/23 06:16:08;;;;;;;15.60;13.93;;;;;;;9.67;93.66;96961.09;1786474;80;21364;-85
2022/09/23 06:18:35;;;;;;;15.60;13.83;;;;;;;9.68;93.86;96955.73;1786332;80;20969;-86
2022/09/23 06:21:02;;;;;;;18.57;14.78;;;;;;;9.69;94.02;96959.14;1757435;80;21338;-86
2022/09/23 06:23:27;;;;;;;22.60;17.57;;;;;;;9.57;93.55;96963.34;1757747;81;20933;-85
2022/09/23 06:25:53;;;;;;;17.60;14.20;;;;;;;9.61;94.20;96964.66;1757302;80;21000;-85
2022/09/23 06:28:19;;;;;;;16.50;12.75;;;;;;;9.65;93.81;96963.84;1736733;81;20999;-86
2022/09/23 06:30:45;;;;;;;17.20;14.15;;;;;;;9.70;94.19;96960.76;1770759;79;20934;-85
2022/09/23 06:33:14;;;;;;;19.00;15.75;;;;;;;9.76;94.34;96962.70;1764077;80;21431;-86
2022/09/23 06:35:42;;;;;;;30.92;23.67;;;;;;;9.83;94.60;96964.50;1755482;80;20947;-85
2022/09/23 06:38:08;;;;;;;93.82;61.88;;;;;;;9.89;95.05;96957.34;1755454;80;20976;-86
2022/09/23 06:40:34;;;;;;;49.48;32.65;;;;;;;9.93;94.80;96962.56;1781234;80;20939;-85
2022/09/23 06:43:00;;;;;;;26.62;20.52;;;;;;;9.97;94.43;96963.03;1772299;80;21310;-86
2022/09/23 06:45:26;;;;;;;24.12;20.32;;;;;;;9.95;94.35;96962.39;1758735;80;20952;-85
2022/09/23 06:47:56;;;;;;;21.15;17.02;;;;;;;9.96;95.01;96960.60;1762873;80;21312;-85
2022/09/23 06:50:25;;;;;;;23.65;17.35;;;;;;;10.01;94.56;96964.81;1785845;80;21380;-86
2022/09/23 06:52:54;;;;;;;19.87;17.20;;;;;;;10.00;94.36;96960.11;1781163;80;20968;-86
2022/09/23 06:55:26;;;;;;;19.30;15.05;;;;;;;9.99;93.98;96964.17;1788483;80;21037;-85
2022/09/23 06:57:51;;;;;;;21.57;17.17;;;;;;;9.93;93.71;96966.94;1793417;80;20946;-85
2022/09/23 07:00:18;;;;;;;18.48;15.15;;;;;;;9.99;94.12;96966.77;1783542;80;21413;-86
2022/09/23 07:02:44;;;;;;;20.43;16.75;;;;;;;10.00;94.05;96970.48;1761682;80;21009;-85
2022/09/23 07:05:10;;;;;;;25.20;19.67;;;;;;;10.07;94.40;96967.55;1764198;80;21007;-85
2022/09/23 07:07:36;;;;;;;28.27;22.60;;;;;;;10.11;94.26;96968.87;1782385;80;20976;-85
2022/09/23 07:10:05;;;;;;;27.55;21.00;;;;;;;10.13;94.43;96968.21;1800002;80;21016;-85
2022/09/23 07:12:32;;;;;;;26.35;19.82;;;;;;;10.15;94.38;96972.75;1796973;79;20971;-86
2022/09/23 07:14:58;;;;;;;20.27;16.70;;;;;;;10.19;94.78;96972.73;1799284;80;20985;-85
2022/09/23 07:17:24;;;;;;;38.63;26.82;;;;;;;10.21;94.11;96972.11;1798485;80;20998;-85
2022/09/23 07:19:53;;;;;;;23.02;18.40;;;;;;;10.25;94.59;96972.62;1799698;80;20952;-85
2022/09/23 07:22:23;;;;;;;25.72;18.57;;;;;;;10.31;94.44;96968.05;1787262;80;21011;-85
2022/09/23 07:24:48;;;;;;;23.87;17.55;;;;;;;10.36;94.42;96973.55;1782944;79;20983;-86
2022/09/23 07:27:18;;;;;;;23.15;17.02;;;;;;;10.41;93.82;96979.08;1795153;80;20916;-86
2022/09/23 07:29:48;;;;;;;17.90;15.93;;;;;;;10.44;94.31;96980.04;1769172;80;21349;-85
2022/09/23 07:32:14;;;;;;;21.80;17.17;;;;;;;10.45;94.08;96974.36;1806832;79;21035;-86
2022/09/23 07:34:40;;;;;;;20.12;16.57;;;;;;;10.47;93.52;96983.59;1782414;80;21117;-86
2022/09/23 07:37:06;;;;;;;20.55;16.97;;;;;;;10.53;93.75;96987.31;1784461;80;20946;-86
2022/09/23 07:39:32;;;;;;;17.98;15.53;;;;;;;10.60;93.55;96984.39;1777026;80;21061;-86
2022/09/23 07:41:58;;;;;;;18.48;15.15;;;;;;;10.63;93.14;96984.53;1806577;79;20932;-86
2022/09/23 07:44:24;;;;;;;18.32;14.63;;;;;;;10.66;93.11;96990.20;1776537;80;20999;-85
2022/09/23 07:46:50;;;;;;;17.02;13.95;;;;;;;10.71;93.08;96990.50;1793117;79;21381;-86
2022/09/23 07:49:15;;;;;;;16.17;14.33;;;;;;;10.76;92.48;96992.13;1775820;80;21319;-86
2022/09/23 07:51:45;;;;;;;17.92;14.43;;;;;;;10.75;91.37;96984.50;1781067;80;20941;-86
2022/09/23 07:54:13;;;;;;;18.62;14.65;;;;;;;10.82;92.54;96991.94;1791237;79;21083;-85
2022/09/23 07:56:39;;;;;;;19.50;15.50;;;;;;;10.80;91.14;96988.21;1772909;80;21123;-86
2022/09/23 07:59:07;;;;;;;17.12;14.25;;;;;;;10.75;90.96;96990.52;1755633;80;21064;-85
2022/09/23 08:01:40;;;;;;;15.85;13.90;;;;;;;10.76;91.27;96988.72;1755681;80;21007;-86
2022/09/23 08:04:29;;;;;;;19.92;15.13;;;;;;;10.82;91.34;96986.25;1758944;80;21015;-85
2022/09/23 08:06:59;;;;;;;19.02;14.53;;;;;;;10.92;91.99;96991.27;1768238;80;20914;-85
2022/09/23 08:09:31;;;;;;;20.68;15.13;;;;;;;11.04;91.13;96990.37;1782994;80;22055;-84
2022/09/23 08:11:57;;;;;;;18.07;14.47;;;;;;;11.05;90.66;96990.20;1764611;80;20954;-85
2022/09/23 08:14:23;;;;;;;19.90;15.98;;;;;;;10.98;90.85;96987.98;1786639;80;20958;-86
2022/09/23 08:16:49;;;;;;;18.92;14.90;;;;;;;11.02;90.92;96988.44;1779410;80;20956;-86
2022/09/23 08:19:15;;;;;;;15.85;12.80;;;;;;;11.03;91.08;96985.67;1776002;80;21334;-86
2022/09/23 08:21:41;;;;;;;18.35;12.10;;;;;;;10.97;90.35;96984.25;1747217;81;21000;-86
2022/09/23 08:24:10;;;;;;;14.80;12.25;;;;;;;10.96;90.33;96986.53;1783780;79;21475;-85
2022/09/23 08:26:36;;;;;;;17.40;11.90;;;;;;;10.99;90.93;96988.30;1760785;80;20964;-85
2022/09/23 08:29:03;;;;;;;15.72;12.55;;;;;;;11.06;90.76;96987.95;1772529;80;20976;-86
2022/09/23 08:31:29;;;;;;;16.55;12.95;;;;;;;11.09;89.85;96986.31;1755777;80;20948;-85
2022/09/23 08:33:56;;;;;;;16.35;13.28;;;;;;;11.10;89.99;96982.73;1784811;80;20980;-86
2022/09/23 08:36:24;;;;;;;16.80;13.00;;;;;;;11.10;90.28;96985.82;1764444;80;21001;-85
2022/09/23 08:38:49;;;;;;;18.50;13.85;;;;;;;11.18;90.64;96985.77;1758716;81;20995;-85
2022/09/23 08:41:38;;;;;;;14.85;13.15;;;;;;;11.28;89.76;96975.97;1754704;81;21059;-86
2022/09/23 08:44:20;;;;;;;14.83;13.25;;;;;;;11.42;89.05;96984.83;1753760;81;21043;-86
2022/09/23 08:46:50;;;;;;;;;;;;;;;11.48;89.50;96984.13;1767025;80;21409;-86
2022/09/23 08:49:24;;;;;;;14.93;12.80;;;;;;;11.57;90.11;96974.50;1786254;80;20097;-85
2022/09/23 08:51:53;;;;;;;13.08;11.28;;;;;;;11.60;89.52;96980.65;1749823;82;21281;-86
2022/09/23 08:54:19;;;;;;;13.80;12.28;;;;;;;11.59;89.27;96976.43;1753158;81;21034;-86
2022/09/23 08:56:50;;;;;;;13.43;10.58;;;;;;;11.60;88.85;96972.84;1769707;79;20975;-86
2022/09/23 08:59:21;;;;;;;11.95;10.48;;;;;;;11.66;89.44;96975.55;1793853;79;20960;-86
2022/09/23 09:02:01;;;;;;;12.20;10.82;;;;;;;11.80;89.36;96975.81;1779034;79;21341;-86
2022/09/23 09:04:43;;;;;;;11.48;10.03;;;;;;;11.92;89.72;96977.02;1782141;79;21001;-85
2022/09/23 09:07:16;;;;;;;12.73;9.95;;;;;;;11.99;86.88;96976.63;1804223;79;20927;-85
2022/09/23 09:09:50;;;;;;;12.30;10.28;;;;;;;11.90;87.27;96977.70;1785750;79;20976;-86
2022/09/23 09:12:35;;;;;;;13.93;11.88;;;;;;;12.01;87.54;96975.95;1807560;79;21021;-85
2022/09/23 09:15:06;;;;;;;16.17;12.07;;;;;;;12.02;86.82;96969.27;1786145;79;21043;-86
2022/09/23 09:17:49;;;;;;;15.08;11.57;;;;;;;11.96;86.65;96970.47;1778057;79;21004;-85
2022/09/23 09:20:23;;;;;;;12.90;10.85;;;;;;;11.98;87.15;96973.71;1797230;79;20948;-86
2022/09/23 09:22:58;;;;;;;10.95;9.70;;;;;;;12.05;86.78;96973.34;1809642;79;20940;-86
2022/09/23 09:25:50;;;;;;;29.67;20.57;;;;;;;12.11;87.18;96964.81;1789535;79;21063;-85
2022/09/23 09:28:23;;;;;;;14.00;11.78;;;;;;;12.13;86.02;96969.84;1779469;80;20912;-85
2022/09/23 09:30:54;;;;;;;11.65;9.28;;;;;;;12.20;86.49;96970.27;1799602;79;20964;-85
2022/09/23 09:33:40;;;;;;;13.55;9.90;;;;;;;12.23;87.19;96959.48;1747717;81;21366;-86
2022/09/23 09:36:22;;;;;;;12.65;9.55;;;;;;;12.18;86.04;96963.59;1778349;79;20972;-85
2022/09/23 09:38:49;;;;;;;10.53;9.05;;;;;;;12.09;85.05;96962.88;1787062;79;21014;-86
2022/09/23 09:41:17;;;;;;;10.03;8.28;;;;;;;12.06;84.62;96968.94;1781044;79;21270;-86
2022/09/23 09:43:47;;;;;;;11.28;9.95;;;;;;;11.81;83.89;96949.59;1809598;79;20991;-85
2022/09/23 09:46:50;;;;;;;12.63;10.10;;;;;;;11.90;84.12;96962.88;1794602;79;21393;-85
2022/09/23 09:49:31;;;;;;;13.13;9.65;;;;;;;11.87;84.38;96958.49;1791077;79;20958;-85
2022/09/23 09:52:24;;;;;;;14.90;10.82;;;;;;;11.91;85.94;96956.69;1808042;79;20980;-86
2022/09/23 09:54:50;;;;;;;10.35;9.28;;;;;;;11.89;85.49;96961.27;1771572;79;21086;-86
2022/09/23 09:57:20;;;;;;;10.75;9.30;;;;;;;11.88;83.75;96958.34;1769808;78;21021;-85
2022/09/23 09:59:46;;;;;;;13.32;10.32;;;;;;;11.95;84.56;96951.93;1767814;80;21364;-86
2022/09/23 10:02:26;;;;;;;10.32;8.03;;;;;;;12.04;83.85;96953.49;1800811;79;20992;-86
2022/09/23 10:05:11;;;;;;;10.10;8.95;;;;;;;12.21;85.52;96943.23;1750511;80;20952;-85
2022/09/23 10:07:37;;;;;;;10.88;8.83;;;;;;;12.40;85.97;96939.29;1741786;80;20986;-86
2022/09/23 10:10:19;;;;;;;9.25;8.30;;;;;;;12.63;85.00;96935.27;1787587;79;20939;-86
2022/09/23 10:12:47;;;;;;;10.00;8.08;;;;;;;12.54;81.92;96930.66;1762682;80;21358;-86
2022/09/23 10:15:33;;;;;;;11.85;8.50;;;;;;;12.42;82.75;96938.61;1761855;80;21340;-86
2022/09/23 10:18:01;;;;;;;9.00;8.05;;;;;;;12.43;83.21;96937.63;1797239;79;20940;-85
2022/09/23 10:20:37;;;;;;;9.15;8.10;;;;;;;12.41;83.67;96930.97;1776407;80;21360;-86
2022/09/23 10:23:07;;;;;;;10.70;8.95;;;;;;;12.52;82.75;96926.10;1793083;79;20962;-84
2022/09/23 10:25:33;;;;;;;9.15;7.53;;;;;;;12.63;82.58;96931.36;1784773;80;21420;-86
2022/09/23 10:27:59;;;;;;;7.95;5.70;;;;;;;12.78;84.43;96928.25;1788865;80;20937;-86
2022/09/23 10:30:26;;;;;;;7.97;6.25;;;;;;;12.87;80.84;96938.09;1708011;80;21364;-86
2022/09/23 10:32:53;;;;;;;6.83;6.05;;;;;;;12.78;79.50;96926.14;1783287;80;20971;-85
2022/09/23 10:35:22;;;;;;;6.65;5.03;;;;;;;12.81;80.91;96924.47;1782539;79;20944;-86
2022/09/23 10:37:58;;;;;;;8.05;6.10;;;;;;;12.92;80.39;96920.09;1771514;80;20987;-86
2022/09/23 10:46:44;;;;;;;6.97;5.37;;;;;;;13.11;83.73;96914.78;1803397;79;21078;-86
2022/09/23 10:49:40;;;;;;;;;;;;;;;13.34;82.04;96910.72;1785961;79;21338;-86
2022/09/23 10:52:30;;;;;;;9.35;7.58;;;;;;;13.44;80.94;96912.05;1802880;79;20092;-85
2022/09/23 10:55:28;;;;;;;10.57;9.47;;;;;;;13.32;79.79;96914.02;1782336;80;21118;-85
2022/09/23 10:58:26;;;;;;;10.68;9.60;;;;;;;13.10;79.21;96907.95;1771220;80;21397;-86
2022/09/23 11:01:24;;;;;;;9.45;7.78;;;;;;;12.89;80.20;96903.52;1795950;79;20950;-86
2022/09/23 11:04:15;;;;;;;10.55;8.55;;;;;;;12.65;79.80;96905.11;1771639;80;20975;-86
2022/09/23 11:07:12;;;;;;;9.60;6.87;;;;;;;12.51;80.45;96899.72;1774428;79;20955;-86
2022/09/23 11:10:07;;;;;;;9.25;7.10;;;;;;;12.45;81.17;96898.34;1790072;79;21347;-85
2022/09/23 11:13:02;;;;;;;8.00;6.37;;;;;;;12.38;81.40;96893.55;1801841;79;21028;-86
2022/09/23 11:16:04;;;;;;;7.92;6.25;;;;;;;12.45;80.86;96897.04;1786653;79;20972;-86
2022/09/23 11:19:05;;;;;;;7.20;5.72;;;;;;;12.69;79.96;96897.23;1782491;79;20971;-85
2022/09/23 11:22:07;;;;;;;7.75;5.70;;;;;;;12.82;79.31;96900.00;1795367;79;20957;-86
2022/09/23 11:25:03;;;;;;;5.85;5.22;;;;;;;12.95;80.07;96894.95;1782129;79;21254;-86
2022/09/23 11:28:00;;;;;;;5.87;4.40;;;;;;;13.03;75.84;96887.52;1801747;79;20981;-86
2022/09/23 11:30:54;;;;;;;5.15;3.90;;;;;;;13.03;75.61;96890.94;1811649;79;20956;-86
2022/09/23 11:33:45;;;;;;;3.60;2.98;;;;;;;13.13;74.52;96893.23;1771759;80;20924;-86
2022/09/23 11:36:17;;;;;;;4.30;3.30;;;;;;;13.17;72.67;96890.55;1794892;79;20925;-85
2022/09/23 11:38:45;;;;;;;4.30;2.87;;;;;;;13.20;72.12;96888.44;1806258;79;21007;-86
2022/09/23 11:41:27;;;;;;;4.55;3.10;;;;;;;13.25;72.88;96883.15;1790172;79;20911;-86
2022/09/23 11:44:04;;;;;;;3.02;2.65;;;;;;;13.28;73.35;96882.77;1776800;79;20947;-86
2022/09/23 11:46:46;;;;;;;4.05;3.50;;;;;;;13.37;71.63;96880.36;1802837;79;20989;-86
2022/09/23 11:49:19;;;;;;;3.47;2.27;;;;;;;13.46;72.17;96876.11;1773357;78;21025;-86
2022/09/23 11:52:18;;;;;;;4.47;3.85;;;;;;;13.61;71.76;96872.62;1771334;79;21007;-86
2022/09/23 11:54:53;;;;;;;5.35;4.20;;;;;;;13.69;72.29;96869.89;1717561;82;21009;-85
2022/09/23 11:57:45;;;;;;;5.67;4.58;;;;;;;13.78;72.50;96870.85;1730169;82;21326;-86
2022/09/23 12:00:19;;;;;;;4.90;4.10;;;;;;;13.92;72.18;96861.31;1764672;80;20906;-86
2022/09/23 12:02:50;;;;;;;4.58;3.08;;;;;;;14.06;72.55;96857.79;1735837;83;20976;-85